KNTU/NTU METAR and TAF weather

Enter ICAO airport designator
Station Type Date Time Source
KNTU METAR 2024/04/17 18:56 UTC NOAA

KNTU 171856Z 23010KT 10SM FEW070 BKN180 OVC300 28/16 A3000 RMK AO2 SLP160 T02830156


Station Type Date Time Source
KNTU Decoded METAR 2024/04/17 18:56 UTC NOAA

OCEANA, NAVAL AIR STATION, VA, United States (KNTU) 36-49N 076-02W 6M
Apr 17, 2024 - 02:56 PM EDT / 2024.04.17 1856 UTC
Wind: from the SW (230 degrees) at 12 MPH (10 KT):0
Visibility: 10 mile(s):0
Sky conditions: overcast
Temperature: 82.9 F (28.3 C)
Dew Point: 60.1 F (15.6 C)
Relative Humidity: 46%
Pressure (altimeter): 30 in. Hg (1015 hPa)
ob: KNTU 171856Z 23010KT 10SM FEW070 BKN180 OVC300 28/16 A3000 RMK AO2 SLP160 T02830156
cycle: 19

Station Type Date Time Source
KNTU TAF 2024/04/17 23:26 UTC NOAA